Time;durP1;ratioP1;P1;durP2;ratioP2;P2;SDS_P1;SDS_P2;PMS_P1;PMS_P2;Temp;Humidity;BMP_temperature;BMP_pressure;BME280_temperature;BME280_humidity;BME280_pressure;Samples;Min_cycle;Max_cycle;Signal;HPM_P1;HPM_P2
2023/12/23 00:00:33;;;;;;;;;;;;;;;-144.99;87.44;52729.38;5081800;28;20357;-68
2023/12/23 00:03:01;;;;;;;;;;;;;;;-144.99;87.41;52682.50;5071228;28;20067;-69
2023/12/23 00:05:28;;;;;;;;;;;;;;;-144.99;87.95;52660.09;5069858;28;19934;-67
2023/12/23 00:07:54;;;;;;;;;;;;;;;-144.99;88.02;52696.78;5077673;28;20014;-68
2023/12/23 00:10:21;;;;;;;;;;;;;;;-144.99;88.04;52729.38;5073621;28;19927;-67
2023/12/23 00:12:47;;;;;;;;;;;;;;;-144.99;87.88;52704.94;5077384;28;20011;-67
2023/12/23 00:15:14;;;;;;;;;;;;;;;-144.99;87.81;52700.84;5085803;28;19924;-68
2023/12/23 00:17:40;;;;;;;;;;;;;;;-144.99;87.91;52664.16;5085951;28;20018;-68
2023/12/23 00:20:08;;;;;;;;;;;;;;;-144.99;88.35;52656.00;5077431;28;20664;-68
2023/12/23 00:22:36;;;;;;;;;;;;;;;-144.99;87.81;52696.78;5078145;28;20451;-68
2023/12/23 00:25:03;;;;;;;;;;;;;;;-144.99;88.05;52704.94;5072560;28;19928;-67
2023/12/23 00:27:29;;;;;;;;;;;;;;;-144.99;88.00;52668.22;5078831;28;20019;-67
2023/12/23 00:29:56;;;;;;;;;;;;;;;-144.99;88.04;52682.50;5083085;28;19962;-68
2023/12/23 00:32:23;;;;;;;;;;;;;;;-144.99;88.04;52645.81;5070679;28;20303;-67
2023/12/23 00:34:49;;;;;;;;;;;;;;;-144.99;88.06;52711.03;5076367;28;19924;-74
2023/12/23 00:37:17;;;;;;;;;;;;;;;-144.99;88.00;52709.00;5080644;28;20030;-74
2023/12/23 00:39:43;;;;;;;;;;;;;;;-144.99;87.89;52696.78;4724069;28;9999944;-75
2023/12/23 00:42:10;;;;;;;;;;;;;;;-144.99;87.63;52688.63;5076355;28;19928;-74
2023/12/23 00:44:36;;;;;;;;;;;;;;;-144.99;87.71;52688.63;5088168;28;19928;-74
2023/12/23 00:47:03;;;;;;;;;;;;;;;-144.99;87.10;52680.47;5085421;28;19934;-75
2023/12/23 00:49:29;;;;;;;;;;;;;;;-144.99;86.77;52656.00;5087945;28;19935;-73
2023/12/23 00:51:55;;;;;;;;;;;;;;;-144.99;87.00;52696.78;5091018;28;19939;-76
2023/12/23 00:54:24;;;;;;;;;;;;;;;-144.99;87.02;52704.94;5080593;28;20012;-71
2023/12/23 00:56:50;;;;;;;;;;;;;;;-144.99;87.06;52717.16;5086019;28;20003;-73
2023/12/23 00:59:17;;;;;;;;;;;;;;;-144.99;87.09;52696.78;5088376;28;20010;-74
2023/12/23 01:01:43;;;;;;;;;;;;;;;-144.99;86.95;52680.47;5077475;28;20022;-73
2023/12/23 01:04:10;;;;;;;;;;;;;;;-144.99;87.11;52690.66;5076425;28;20004;-73
2023/12/23 01:06:36;;;;;;;;;;;;;;;-144.99;87.11;52651.94;5063736;28;19967;-74
2023/12/23 01:09:04;;;;;;;;;;;;;;;-144.99;87.37;52704.94;5090112;28;19979;-75
2023/12/23 01:11:32;;;;;;;;;;;;;;;-144.99;87.63;52692.69;5077270;28;20410;-74
2023/12/23 01:13:58;;;;;;;;;;;;;;;-144.99;88.11;52656.00;5083529;28;19928;-74
2023/12/23 01:16:25;;;;;;;;;;;;;;;-144.99;88.28;52696.78;5080094;28;20011;-73
2023/12/23 01:18:51;;;;;;;;;;;;;;;-144.99;87.92;52680.47;5095077;28;19924;-74
2023/12/23 01:21:20;;;;;;;;;;;;;;;-144.99;88.32;52676.38;5083876;28;20817;-74
2023/12/23 01:23:46;;;;;;;;;;;;;;;-144.99;88.51;52692.69;5091177;28;19928;-75
2023/12/23 01:26:13;;;;;;;;;;;;;;;-144.99;88.42;52696.78;5084888;28;20381;-68
2023/12/23 01:28:41;;;;;;;;;;;;;;;-144.99;89.16;52733.47;5088939;28;19924;-69
2023/12/23 01:31:07;;;;;;;;;;;;;;;-144.99;89.48;52692.69;5086678;28;20035;-69
2023/12/23 01:33:34;;;;;;;;;;;;;;;-144.99;89.03;52696.78;5080892;28;19990;-69
2023/12/23 01:36:02;;;;;;;;;;;;;;;-144.99;89.77;52688.63;5077522;28;19971;-69
2023/12/23 01:38:29;;;;;;;;;;;;;;;-144.99;89.84;52676.38;5090986;28;20084;-70
2023/12/23 01:40:55;;;;;;;;;;;;;;;-144.99;88.91;52717.16;5089540;28;20026;-72
2023/12/23 01:43:22;;;;;;;;;;;;;;;-144.99;89.29;52674.34;5079973;28;19931;-73
2023/12/23 01:45:50;;;;;;;;;;;;;;;-144.99;88.62;52678.44;5088784;28;20403;-74
2023/12/23 01:48:22;;;;;;;;;;;;;;;-144.99;88.75;52684.53;5082230;28;19971;-67
2023/12/23 01:50:48;;;;;;;;;;;;;;;-144.99;88.33;52656.00;5092879;28;19924;-65
2023/12/23 01:53:15;;;;;;;;;;;;;;;-144.99;88.63;52688.63;5074500;28;19925;-65
2023/12/23 01:55:41;;;;;;;;;;;;;;;-144.99;89.53;52700.84;5084879;28;20011;-65
2023/12/23 01:58:08;;;;;;;;;;;;;;;-144.99;90.01;52676.38;5076876;28;20019;-65
2023/12/23 02:00:34;;;;;;;;;;;;;;;-144.99;90.86;52704.94;5084834;28;19928;-67
2023/12/23 02:03:03;;;;;;;;;;;;;;;-144.99;91.12;52680.47;5085250;28;19971;-66
2023/12/23 02:05:30;;;;;;;;;;;;;;;-144.99;91.61;52678.44;5077983;28;20031;-67
2023/12/23 02:07:56;;;;;;;;;;;;;;;-144.99;91.98;52668.22;5087805;28;19928;-67
2023/12/23 02:10:23;;;;;;;;;;;;;;;-144.99;92.02;52664.16;5087866;28;20177;-67
2023/12/23 02:12:56;;;;;;;;;;;;;;;-144.99;91.70;52680.47;5082255;28;20456;-69
2023/12/23 02:15:23;;;;;;;;;;;;;;;-144.99;92.23;52658.03;5086445;28;20013;-69
2023/12/23 02:17:58;;;;;;;;;;;;;;;-144.99;92.25;52664.16;5079103;28;20417;-69
2023/12/23 02:20:26;;;;;;;;;;;;;;;-144.99;92.14;52704.94;5084979;28;19989;-68
2023/12/23 02:22:54;;;;;;;;;;;;;;;-144.99;92.33;52641.72;5076664;28;19963;-69
2023/12/23 02:25:21;;;;;;;;;;;;;;;-144.99;92.33;52684.53;5087872;28;19928;-70
2023/12/23 02:27:50;;;;;;;;;;;;;;;-144.99;92.18;52676.38;5074585;28;20431;-70
2023/12/23 02:30:17;;;;;;;;;;;;;;;-144.99;91.84;52660.09;5079724;28;19934;-70
2023/12/23 02:32:45;;;;;;;;;;;;;;;-144.99;91.58;52682.50;5084614;28;19952;-70
2023/12/23 02:35:12;;;;;;;;;;;;;;;-144.99;92.10;52688.63;5082195;28;19960;-70
2023/12/23 02:37:38;;;;;;;;;;;;;;;-144.99;91.56;52656.00;5088149;28;19978;-69
2023/12/23 02:40:07;;;;;;;;;;;;;;;-144.99;91.66;52709.00;5089672;28;20348;-69
2023/12/23 02:42:36;;;;;;;;;;;;;;;-144.99;91.16;52658.03;5078176;28;20255;-70
2023/12/23 02:45:03;;;;;;;;;;;;;;;-144.99;91.79;52647.84;5081019;28;19935;-69
2023/12/23 02:47:29;;;;;;;;;;;;;;;-144.99;91.13;52684.53;5086613;28;19939;-67
2023/12/23 02:49:56;;;;;;;;;;;;;;;-144.99;91.16;52660.09;5081147;28;20399;-67
2023/12/23 02:52:22;;;;;;;;;;;;;;;-144.99;90.59;52672.31;5086729;28;20409;-68
2023/12/23 02:54:49;;;;;;;;;;;;;;;-144.99;90.77;52678.44;5082928;28;19924;-67
2023/12/23 02:57:16;;;;;;;;;;;;;;;-144.99;91.11;52700.84;5075925;28;19924;-67
2023/12/23 02:59:43;;;;;;;;;;;;;;;-144.99;91.54;52668.22;5085193;28;20015;-67
2023/12/23 03:02:09;;;;;;;;;;;;;;;-144.99;91.62;52664.16;5083475;28;20406;-68
2023/12/23 03:04:36;;;;;;;;;;;;;;;-144.99;91.98;52668.22;5071331;28;20027;-67
2023/12/23 03:07:02;;;;;;;;;;;;;;;-144.99;91.86;52660.09;5076115;28;19924;-67
2023/12/23 03:09:29;;;;;;;;;;;;;;;-144.99;91.70;52662.13;5075168;28;20424;-67
2023/12/23 03:11:55;;;;;;;;;;;;;;;-144.99;91.47;52664.16;5086082;28;20033;-67
2023/12/23 03:14:23;;;;;;;;;;;;;;;-144.99;91.09;52686.59;5080496;28;20360;-68
2023/12/23 03:16:50;;;;;;;;;;;;;;;-144.99;90.77;52656.00;5088953;28;20013;-68
2023/12/23 03:19:16;;;;;;;;;;;;;;;-144.99;90.60;52696.78;5073579;28;19956;-68
2023/12/23 03:21:43;;;;;;;;;;;;;;;-144.99;89.98;52660.09;5081219;28;19974;-68
2023/12/23 03:24:09;;;;;;;;;;;;;;;-144.99;89.05;52664.16;5072494;28;19924;-65
2023/12/23 03:26:37;;;;;;;;;;;;;;;-144.99;88.59;52662.13;5086645;28;19971;-65
2023/12/23 03:29:04;;;;;;;;;;;;;;;-144.99;87.11;52643.78;5086828;28;20030;-65
2023/12/23 03:31:33;;;;;;;;;;;;;;;-144.99;86.76;52656.00;5084691;28;19935;-66
2023/12/23 03:34:00;;;;;;;;;;;;;;;-144.99;86.28;52676.38;5096267;28;19963;-68
2023/12/23 03:36:27;;;;;;;;;;;;;;;-144.99;85.58;52656.00;5082429;28;20040;-67
2023/12/23 03:38:53;;;;;;;;;;;;;;;-144.99;85.29;52676.38;5082469;28;19924;-67
2023/12/23 03:41:20;;;;;;;;;;;;;;;-144.99;86.11;52660.09;5079876;28;19990;-67
2023/12/23 03:43:46;;;;;;;;;;;;;;;-144.99;88.54;52676.38;5085886;28;20013;-68
2023/12/23 03:46:13;;;;;;;;;;;;;;;-144.99;90.69;52682.50;5087783;28;20109;-70
2023/12/23 03:48:40;;;;;;;;;;;;;;;-144.99;92.73;52698.81;5088308;28;20005;-69
2023/12/23 03:51:08;;;;;;;;;;;;;;;-144.99;94.43;52660.09;5080505;28;20405;-69
2023/12/23 03:53:34;;;;;;;;;;;;;;;-144.99;95.94;52643.78;5077577;28;19925;-69
2023/12/23 03:56:01;;;;;;;;;;;;;;;-144.99;96.99;52717.16;5081773;28;19975;-67
2023/12/23 03:58:27;;;;;;;;;;;;;;;-144.99;97.65;52690.66;5073887;28;19928;-68
2023/12/23 04:00:54;;;;;;;;;;;;;;;-144.99;97.69;52700.84;5088683;28;19979;-68
2023/12/23 04:03:20;;;;;;;;;;;;;;;-144.99;97.85;52656.00;5083850;28;19958;-68
2023/12/23 04:05:48;;;;;;;;;;;;;;;-144.99;98.46;52668.22;5078119;28;20016;-69
2023/12/23 04:08:16;;;;;;;;;;;;;;;-144.99;98.17;52709.00;5083944;28;20370;-70
2023/12/23 04:10:43;;;;;;;;;;;;;;;-144.99;99.17;52733.47;5081012;28;19964;-70
2023/12/23 04:13:09;;;;;;;;;;;;;;;-144.99;99.10;52658.03;5090387;28;19964;-70
2023/12/23 04:15:35;;;;;;;;;;;;;;;-144.99;99.10;52674.34;5086060;28;19967;-69
2023/12/23 04:18:02;;;;;;;;;;;;;;;-144.99;99.03;52668.22;5088603;28;20310;-69
2023/12/23 04:20:29;;;;;;;;;;;;;;;-144.99;99.04;52668.22;5081534;28;20082;-72
2023/12/23 04:22:56;;;;;;;;;;;;;;;-144.99;98.84;52690.66;5083197;28;19975;-70
2023/12/23 04:25:23;;;;;;;;;;;;;;;-144.99;97.34;52692.69;5088901;28;19971;-73
2023/12/23 04:27:51;;;;;;;;;;;;;;;-144.99;95.95;52664.16;5086307;28;19928;-69
2023/12/23 04:30:18;;;;;;;;;;;;;;;-144.99;95.14;52676.38;5082310;28;19924;-70
2023/12/23 04:32:44;;;;;;;;;;;;;;;-144.99;94.83;52704.94;5088928;28;19963;-70
2023/12/23 04:35:11;;;;;;;;;;;;;;;-144.99;93.98;52662.13;5075789;28;20240;-70
2023/12/23 04:37:41;;;;;;;;;;;;;;;-144.99;93.58;52696.78;5085849;28;19963;-72
2023/12/23 04:40:10;;;;;;;;;;;;;;;-144.99;92.54;52684.53;5077953;28;19928;-72
2023/12/23 04:42:37;;;;;;;;;;;;;;;-144.99;92.29;52639.69;5087558;28;19974;-72
2023/12/23 04:45:03;;;;;;;;;;;;;;;-144.99;92.05;52617.28;5079490;28;19970;-71
2023/12/23 04:47:30;;;;;;;;;;;;;;;-144.99;91.88;52684.53;5090238;28;20013;-66
2023/12/23 04:49:56;;;;;;;;;;;;;;;-144.99;92.65;52709.00;5078532;28;19967;-66
2023/12/23 04:52:23;;;;;;;;;;;;;;;-144.99;93.24;52682.50;5089784;28;19928;-67
2023/12/23 04:54:50;;;;;;;;;;;;;;;-144.99;95.11;52692.69;5091402;28;20358;-67
2023/12/23 04:57:17;;;;;;;;;;;;;;;-144.99;95.28;52656.00;5077638;28;20019;-68
2023/12/23 04:59:44;;;;;;;;;;;;;;;-144.99;95.61;52627.47;5088378;28;19978;-69
2023/12/23 05:02:10;;;;;;;;;;;;;;;-144.99;96.71;52656.00;5086348;28;19924;-70
2023/12/23 05:04:37;;;;;;;;;;;;;;;-144.99;98.04;52684.53;5088186;28;20038;-67
2023/12/23 05:07:03;;;;;;;;;;;;;;;-144.99;98.66;52676.38;5078143;28;19992;-71
2023/12/23 05:09:30;;;;;;;;;;;;;;;-144.99;99.64;52709.00;5082989;28;19998;-69
2023/12/23 05:11:56;;;;;;;;;;;;;;;-144.99;99.96;52668.22;5084246;28;20011;-67
2023/12/23 05:14:24;;;;;;;;;;;;;;;-144.99;99.99;52629.50;5079550;28;20081;-68
2023/12/23 05:16:51;;;;;;;;;;;;;;;-144.99;100.00;52627.47;5090036;28;19959;-69
2023/12/23 05:19:17;;;;;;;;;;;;;;;-144.99;100.00;52688.63;5075187;28;20008;-68
2023/12/23 05:21:44;;;;;;;;;;;;;;;-144.99;100.00;52656.00;5091070;28;21114;-69
2023/12/23 05:24:10;;;;;;;;;;;;;;;-144.99;100.00;52672.31;5077652;28;19970;-67
2023/12/23 05:26:37;;;;;;;;;;;;;;;-144.99;100.00;52696.78;5084986;28;19925;-68
2023/12/23 05:29:03;;;;;;;;;;;;;;;-144.99;100.00;52647.84;5082060;28;20014;-68
2023/12/23 05:31:31;;;;;;;;;;;;;;;-144.99;100.00;52668.22;5087253;28;19963;-72
2023/12/23 05:33:58;;;;;;;;;;;;;;;-144.99;100.00;52704.94;5087235;28;20393;-70
2023/12/23 05:36:24;;;;;;;;;;;;;;;-144.99;100.00;52684.53;5081484;28;20015;-68
2023/12/23 05:38:51;;;;;;;;;;;;;;;-144.99;100.00;52619.31;5079332;28;20536;-67
2023/12/23 05:41:17;;;;;;;;;;;;;;;-144.99;100.00;52600.97;5078476;28;20006;-72
2023/12/23 05:43:43;;;;;;;;;;;;;;;-144.99;100.00;52672.31;5083322;28;19951;-67
2023/12/23 05:46:10;;;;;;;;;;;;;;;-144.99;100.00;52651.94;5086922;28;19957;-69
2023/12/23 05:48:38;;;;;;;;;;;;;;;-144.99;100.00;52674.34;5076743;28;19963;-67
2023/12/23 05:51:07;;;;;;;;;;;;;;;-144.99;100.00;52684.53;5082246;28;20011;-69
2023/12/23 05:53:34;;;;;;;;;;;;;;;-144.99;100.00;52643.78;5088200;28;20317;-69
2023/12/23 05:56:03;;;;;;;;;;;;;;;-144.99;100.00;52662.13;5090230;28;19960;-68
2023/12/23 05:58:30;;;;;;;;;;;;;;;-144.99;100.00;52643.78;5078873;28;19928;-71
2023/12/23 06:00:57;;;;;;;;;;;;;;;-144.99;100.00;52670.28;5084215;28;20360;-71
2023/12/23 06:03:23;;;;;;;;;;;;;;;-144.99;100.00;52729.38;5084549;28;19936;-71
2023/12/23 06:05:51;;;;;;;;;;;;;;;-144.99;100.00;52656.00;5072141;28;19982;-71
2023/12/23 06:08:18;;;;;;;;;;;;;;;-144.99;100.00;52688.63;5083460;28;19932;-70
2023/12/23 06:10:44;;;;;;;;;;;;;;;-144.99;100.00;52615.25;5089929;28;20022;-66
2023/12/23 06:13:10;;;;;;;;;;;;;;;-144.99;100.00;52684.53;5079349;28;19967;-67
2023/12/23 06:15:37;;;;;;;;;;;;;;;-144.99;100.00;52651.94;5089102;28;19924;-67
2023/12/23 06:18:04;;;;;;;;;;;;;;;-144.99;100.00;52662.13;5087433;28;19968;-66
2023/12/23 06:20:31;;;;;;;;;;;;;;;-144.99;100.00;52680.47;5079284;28;19975;-66
2023/12/23 06:22:59;;;;;;;;;;;;;;;-144.99;100.00;52629.50;5084965;28;19924;-67
2023/12/23 06:25:25;;;;;;;;;;;;;;;-144.99;100.00;52660.09;5086186;28;19985;-69
2023/12/23 06:27:52;;;;;;;;;;;;;;;-144.99;100.00;52686.59;5060276;28;19959;-71
2023/12/23 06:30:18;;;;;;;;;;;;;;;-144.99;100.00;52668.22;5069565;28;20028;-72
2023/12/23 06:32:44;;;;;;;;;;;;;;;-144.99;100.00;52645.81;5078224;28;19966;-72
2023/12/23 06:35:11;;;;;;;;;;;;;;;-144.99;100.00;52631.53;5080205;28;20382;-72
2023/12/23 06:37:37;;;;;;;;;;;;;;;-144.99;100.00;52664.16;5081910;28;19928;-71
2023/12/23 06:40:06;;;;;;;;;;;;;;;-144.99;100.00;52680.47;5089663;28;19967;-68
2023/12/23 06:42:33;;;;;;;;;;;;;;;-144.99;100.00;52682.50;5080398;28;19932;-67
2023/12/23 06:44:59;;;;;;;;;;;;;;;-144.99;100.00;52704.94;5085296;28;20397;-68
2023/12/23 06:47:26;;;;;;;;;;;;;;;-144.99;100.00;52688.63;5088727;28;19928;-68
2023/12/23 06:49:52;;;;;;;;;;;;;;;-144.99;100.00;52639.69;5083350;28;20021;-67
2023/12/23 06:52:19;;;;;;;;;;;;;;;-144.99;100.00;52668.22;5079795;28;20198;-67
2023/12/23 06:54:45;;;;;;;;;;;;;;;-144.99;100.00;52700.84;5089942;28;19924;-68
2023/12/23 06:57:13;;;;;;;;;;;;;;;-144.99;100.00;52662.13;5081785;28;19924;-73
2023/12/23 06:59:39;;;;;;;;;;;;;;;-144.99;100.00;52651.94;5085325;28;19966;-70
2023/12/23 07:02:06;;;;;;;;;;;;;;;-144.99;100.00;52680.47;5077984;28;19924;-71
2023/12/23 07:04:33;;;;;;;;;;;;;;;-144.99;100.00;52623.38;5079310;28;20019;-70
2023/12/23 07:06:59;;;;;;;;;;;;;;;-144.99;100.00;52643.78;5079972;28;20150;-70
2023/12/23 07:09:25;;;;;;;;;;;;;;;-144.99;100.00;52623.38;5077931;28;20010;-70
2023/12/23 07:11:52;;;;;;;;;;;;;;;-144.99;100.00;52619.31;5085559;28;19959;-72
2023/12/23 07:14:20;;;;;;;;;;;;;;;-144.99;100.00;52676.38;5070752;28;20018;-73
2023/12/23 07:16:46;;;;;;;;;;;;;;;-144.99;100.00;52692.69;5079045;28;20006;-72
2023/12/23 07:19:14;;;;;;;;;;;;;;;-144.99;100.00;52684.53;5074334;28;19928;-68
2023/12/23 07:21:40;;;;;;;;;;;;;;;-144.99;100.00;52686.59;5084838;28;19927;-67
2023/12/23 07:24:07;;;;;;;;;;;;;;;-144.99;100.00;52688.63;5088415;28;20028;-68
2023/12/23 07:26:35;;;;;;;;;;;;;;;-144.99;100.00;52664.16;5088457;28;20166;-66
2023/12/23 07:29:01;;;;;;;;;;;;;;;-144.99;100.00;52668.22;5083769;28;19924;-70
2023/12/23 07:31:32;;;;;;;;;;;;;;;-144.99;100.00;52656.00;5074775;28;19925;-71
2023/12/23 07:33:58;;;;;;;;;;;;;;;-144.99;100.00;52603.00;5088402;28;20399;-69
2023/12/23 07:36:25;;;;;;;;;;;;;;;-144.99;100.00;52656.00;5077259;28;19928;-70
2023/12/23 07:38:51;;;;;;;;;;;;;;;-144.99;100.00;52656.00;5084470;28;20462;-70
2023/12/23 07:41:18;;;;;;;;;;;;;;;-144.99;100.00;52643.78;5088819;28;19924;-72
2023/12/23 07:43:44;;;;;;;;;;;;;;;-144.99;100.00;52684.53;5083371;28;19967;-71
2023/12/23 07:46:12;;;;;;;;;;;;;;;-144.99;100.00;52692.69;5087893;28;20174;-70
2023/12/23 07:48:39;;;;;;;;;;;;;;;-144.99;100.00;52696.78;5072729;28;19967;-72
2023/12/23 07:51:06;;;;;;;;;;;;;;;-144.99;100.00;52686.59;5081147;28;20401;-72
2023/12/23 07:53:33;;;;;;;;;;;;;;;-144.99;100.00;52662.13;5084851;28;19959;-70
2023/12/23 07:55:59;;;;;;;;;;;;;;;-144.99;100.00;52623.38;5081952;28;20366;-67
2023/12/23 07:58:26;;;;;;;;;;;;;;;-144.99;100.00;52676.38;5074386;28;19928;-72
2023/12/23 08:00:53;;;;;;;;;;;;;;;-144.99;100.00;52668.22;5076101;28;20021;-70
2023/12/23 08:03:20;;;;;;;;;;;;;;;-144.99;100.00;52668.22;5078173;28;19931;-70
2023/12/23 08:05:48;;;;;;;;;;;;;;;-144.99;100.00;52658.03;5087788;28;19994;-71
2023/12/23 08:08:14;;;;;;;;;;;;;;;-144.99;100.00;52680.47;5083381;28;19928;-70
2023/12/23 08:10:41;;;;;;;;;;;;;;;-144.99;100.00;52623.38;5088533;28;19927;-70
2023/12/23 08:13:08;;;;;;;;;;;;;;;-144.99;100.00;52651.94;5085724;28;19928;-70
2023/12/23 08:15:34;;;;;;;;;;;;;;;-144.99;100.00;52668.22;5089364;28;20317;-70
2023/12/23 08:18:01;;;;;;;;;;;;;;;-144.99;100.00;52676.38;5082873;28;19967;-70
2023/12/23 08:20:28;;;;;;;;;;;;;;;-144.99;100.00;52639.69;5077464;28;19950;-70
2023/12/23 08:22:55;;;;;;;;;;;;;;;-144.99;100.00;52688.63;5075736;28;19985;-69
2023/12/23 08:25:22;;;;;;;;;;;;;;;-144.99;100.00;52635.63;5079410;28;20376;-69
2023/12/23 08:27:49;;;;;;;;;;;;;;;-144.99;100.00;52662.13;5085446;28;19958;-65
2023/12/23 08:30:15;;;;;;;;;;;;;;;-144.99;100.00;52684.53;5080633;28;19947;-66
2023/12/23 08:32:42;;;;;;;;;;;;;;;-144.99;100.00;52621.34;5078368;28;20008;-69
2023/12/23 08:35:09;;;;;;;;;;;;;;;-144.99;100.00;52643.78;5073137;28;19958;-70
2023/12/23 08:37:35;;;;;;;;;;;;;;;-144.99;100.00;52670.28;5083708;28;19971;-68
2023/12/23 08:40:04;;;;;;;;;;;;;;;-144.99;100.00;52668.22;5078873;28;20370;-68
2023/12/23 08:42:31;;;;;;;;;;;;;;;-144.99;100.00;52643.78;5083494;28;19928;-69
2023/12/23 08:44:57;;;;;;;;;;;;;;;-144.99;100.00;52672.31;5060909;28;20026;-72
2023/12/23 08:47:24;;;;;;;;;;;;;;;-144.99;100.00;52643.78;5079731;28;20060;-71
2023/12/23 08:49:50;;;;;;;;;;;;;;;-144.99;100.00;52668.22;5078559;28;20425;-71
2023/12/23 08:52:17;;;;;;;;;;;;;;;-144.99;100.00;52627.47;5072036;28;19977;-72
2023/12/23 08:54:44;;;;;;;;;;;;;;;-144.99;100.00;52656.00;5087730;28;20425;-70
2023/12/23 08:57:11;;;;;;;;;;;;;;;-144.99;100.00;52660.09;5082781;28;19992;-72
2023/12/23 08:59:38;;;;;;;;;;;;;;;-144.99;100.00;52676.38;5071083;28;20015;-72
2023/12/23 09:02:11;;;;;;;;;;;;;;;-144.99;100.00;52664.16;5090339;28;20382;-72
2023/12/23 09:04:38;;;;;;;;;;;;;;;-144.99;100.00;52684.53;5087727;28;20303;-73
2023/12/23 09:07:04;;;;;;;;;;;;;;;-144.99;100.00;52656.00;5092450;28;20001;-74
2023/12/23 09:09:31;;;;;;;;;;;;;;;-144.99;100.00;52668.22;5084216;28;20018;-71
2023/12/23 09:11:57;;;;;;;;;;;;;;;-144.99;100.00;52668.22;5079671;28;19928;-72
2023/12/23 09:14:26;;;;;;;;;;;;;;;-144.99;100.00;52627.47;5086918;28;20015;-72
2023/12/23 09:16:53;;;;;;;;;;;;;;;-144.99;100.00;52647.84;5079538;28;20107;-72
2023/12/23 09:19:19;;;;;;;;;;;;;;;-144.99;100.00;52656.00;5090590;28;20216;-72
2023/12/23 09:21:46;;;;;;;;;;;;;;;-144.99;100.00;52660.09;5084457;28;20023;-73
2023/12/23 09:24:13;;;;;;;;;;;;;;;-144.99;100.00;52656.00;5086386;28;20017;-71
2023/12/23 09:26:41;;;;;;;;;;;;;;;-144.99;100.00;52660.09;5102799;22;19924;-69
2023/12/23 09:29:07;;;;;;;;;;;;;;;-144.99;100.00;52670.28;5087706;28;19924;-68
2023/12/23 09:31:35;;;;;;;;;;;;;;;-144.99;100.00;52641.72;5089127;28;20057;-67
2023/12/23 09:34:02;;;;;;;;;;;;;;;-144.99;100.00;52656.00;5095459;28;20329;-68
2023/12/23 09:36:28;;;;;;;;;;;;;;;-144.99;100.00;52651.94;5089290;28;20036;-67
2023/12/23 09:38:55;;;;;;;;;;;;;;;-144.99;100.00;52678.44;5089082;28;19924;-68
2023/12/23 09:41:22;;;;;;;;;;;;;;;-144.99;100.00;52647.84;5097802;28;19928;-67
2023/12/23 09:43:50;;;;;;;;;;;;;;;-144.99;100.00;52627.47;5087831;28;19923;-68
2023/12/23 09:46:17;;;;;;;;;;;;;;;-144.99;100.00;52664.16;5090982;28;19928;-68
2023/12/23 09:48:45;;;;;;;;;;;;;;;-144.99;100.00;52623.38;5096383;28;19995;-67
2023/12/23 09:51:12;;;;;;;;;;;;;;;-144.99;100.00;52647.84;5088749;28;19924;-69
2023/12/23 09:53:39;;;;;;;;;;;;;;;-144.99;100.00;52611.16;5087082;28;19932;-67
2023/12/23 09:56:05;;;;;;;;;;;;;;;-144.99;100.00;52651.94;5088895;28;19932;-68
2023/12/23 09:58:32;;;;;;;;;;;;;;;-144.99;100.00;52639.69;5091070;28;19924;-68
2023/12/23 10:00:58;;;;;;;;;;;;;;;-144.99;100.00;52684.53;5089150;28;19946;-69
2023/12/23 10:03:25;;;;;;;;;;;;;;;-144.99;100.00;52639.69;5088777;28;20423;-67
2023/12/23 10:05:54;;;;;;;;;;;;;;;-144.99;100.00;52651.94;5086142;28;19975;-68
2023/12/23 10:08:20;;;;;;;;;;;;;;;-144.99;100.00;52641.72;5087337;28;19928;-68
2023/12/23 10:10:47;;;;;;;;;;;;;;;-144.99;100.00;52611.16;5088595;28;19928;-68
2023/12/23 10:13:14;;;;;;;;;;;;;;;-144.99;100.00;52664.16;5085490;28;19938;-68
2023/12/23 10:15:41;;;;;;;;;;;;;;;-144.99;100.00;52672.31;5096711;28;19932;-69
2023/12/23 10:18:09;;;;;;;;;;;;;;;-144.99;100.00;52603.00;5088462;28;19924;-69
2023/12/23 10:20:36;;;;;;;;;;;;;;;-144.99;100.00;52627.47;5100781;28;20364;-68
2023/12/23 10:23:04;;;;;;;;;;;;;;;-144.99;100.00;52647.84;5096594;28;19990;-67
2023/12/23 10:25:30;;;;;;;;;;;;;;;-144.99;100.00;52603.00;5084196;28;19932;-67
2023/12/23 10:27:59;;;;;;;;;;;;;;;-144.99;100.00;52672.31;5086393;28;20376;-67
2023/12/23 10:30:27;;;;;;;;;;;;;;;-144.99;100.00;52603.00;5087769;28;19939;-68
2023/12/23 10:32:55;;;;;;;;;;;;;;;-144.99;100.00;52647.84;5085544;28;20415;-67
2023/12/23 10:35:21;;;;;;;;;;;;;;;-144.99;100.00;52635.63;5088070;28;20056;-68
2023/12/23 10:37:49;;;;;;;;;;;;;;;-144.99;100.00;52641.72;5088583;28;20013;-68
2023/12/23 10:40:19;;;;;;;;;;;;;;;-144.99;100.00;52631.53;5087498;28;20416;-68
2023/12/23 10:42:46;;;;;;;;;;;;;;;-144.99;100.00;52627.47;5085853;28;19967;-68
2023/12/23 10:45:12;;;;;;;;;;;;;;;-144.99;100.00;52647.84;5082823;28;19982;-69
2023/12/23 10:47:39;;;;;;;;;;;;;;;-144.99;100.00;52615.25;5082038;28;19924;-69
2023/12/23 10:50:06;;;;;;;;;;;;;;;-144.99;100.00;52635.63;5087238;28;19924;-69
2023/12/23 10:52:33;;;;;;;;;;;;;;;-144.99;100.00;52631.53;5087486;28;19967;-69
2023/12/23 10:55:02;;;;;;;;;;;;;;;-144.99;100.00;52647.84;5086448;28;19980;-69
2023/12/23 10:57:31;;;;;;;;;;;;;;;-144.99;100.00;52656.00;5086272;28;19928;-68
2023/12/23 10:59:58;;;;;;;;;;;;;;;-144.99;100.00;52631.53;5085663;28;20022;-69
2023/12/23 11:02:27;;;;;;;;;;;;;;;-144.99;100.00;52647.84;5087225;28;20065;-68
2023/12/23 11:04:55;;;;;;;;;;;;;;;-144.99;100.00;52668.22;5086953;28;19956;-68
2023/12/23 11:07:23;;;;;;;;;;;;;;;-144.99;100.00;52658.03;5086943;28;20019;-69
2023/12/23 11:09:51;;;;;;;;;;;;;;;-144.99;100.00;52643.78;5083767;28;19971;-69
2023/12/23 11:12:18;;;;;;;;;;;;;;;-144.99;100.00;52627.47;5079335;28;20197;-69
2023/12/23 11:14:46;;;;;;;;;;;;;;;-144.99;100.00;52633.59;5090744;28;19998;-69
2023/12/23 11:17:25;;;;;;;;;;;;;;;-144.99;100.00;52619.31;5094868;28;19928;-68
2023/12/23 11:19:51;;;;;;;;;;;;;;;-144.99;100.00;52651.94;5087978;28;20352;-69
2023/12/23 11:22:22;;;;;;;;;;;;;;;-144.99;100.00;52635.63;5083498;28;19975;-68
2023/12/23 11:24:48;;;;;;;;;;;;;;;-144.99;100.00;52641.72;5085356;28;19974;-67
2023/12/23 11:27:29;;;;;;;;;;;;;;;-144.99;100.00;52643.78;5095162;28;19953;-68
2023/12/23 11:29:58;;;;;;;;;;;;;;;-144.99;100.00;52633.59;5080653;28;19928;-68
2023/12/23 11:32:25;;;;;;;;;;;;;;;-144.99;100.00;52668.22;5081357;28;19934;-68
2023/12/23 11:34:51;;;;;;;;;;;;;;;-144.99;100.00;52643.78;5093093;28;20499;-69
2023/12/23 11:37:18;;;;;;;;;;;;;;;-144.99;100.00;52633.59;5086963;28;19959;-68
2023/12/23 11:39:46;;;;;;;;;;;;;;;-144.99;100.00;52637.66;5092600;28;19932;-68
2023/12/23 11:42:13;;;;;;;;;;;;;;;-144.99;100.00;52635.63;5086633;28;19955;-69
2023/12/23 11:44:41;;;;;;;;;;;;;;;-144.99;100.00;52631.53;5080764;28;19928;-69
2023/12/23 11:47:09;;;;;;;;;;;;;;;-144.99;100.00;52588.75;5081168;28;19985;-70
2023/12/23 11:49:35;;;;;;;;;;;;;;;-144.99;100.00;52617.28;5084375;28;19924;-69
2023/12/23 11:52:02;;;;;;;;;;;;;;;-144.99;100.00;52664.16;5089597;28;20018;-68
2023/12/23 11:54:28;;;;;;;;;;;;;;;-144.99;100.00;52656.00;5090125;28;19928;-68
2023/12/23 11:56:55;;;;;;;;;;;;;;;-144.99;100.00;52680.47;5084739;28;21579;-68
2023/12/23 11:59:22;;;;;;;;;;;;;;;-144.99;100.00;52611.16;5087790;28;19967;-68
2023/12/23 12:01:48;;;;;;;;;;;;;;;-144.99;100.00;52623.38;5084587;28;19947;-68
2023/12/23 12:04:17;;;;;;;;;;;;;;;-144.99;100.00;52643.78;5088190;28;19938;-69
2023/12/23 12:06:43;;;;;;;;;;;;;;;-144.99;100.00;52607.09;5085663;28;19928;-69
2023/12/23 12:09:10;;;;;;;;;;;;;;;-144.99;100.00;52680.47;5090661;28;20009;-68
2023/12/23 12:11:37;;;;;;;;;;;;;;;-144.99;100.00;52629.50;5087238;28;19931;-68
2023/12/23 12:14:06;;;;;;;;;;;;;;;-144.99;100.00;52641.72;5085151;28;19928;-69
2023/12/23 12:16:33;;;;;;;;;;;;;;;-144.99;100.00;52627.47;5085102;28;19978;-69
2023/12/23 12:19:00;;;;;;;;;;;;;;;-144.99;100.00;52611.16;5086869;28;20588;-68